sensor_id;sensor_type;location;lat;lon;timestamp;temperature;humidity
16140;DHT22;8175;49.326;12.690;2023-09-07T07:00:16;15.10;99.90
16140;DHT22;8175;49.326;12.690;2023-09-07T07:02:41;15.20;99.90
16140;DHT22;8175;49.326;12.690;2023-09-07T07:05:07;15.40;99.90
16140;DHT22;8175;49.326;12.690;2023-09-07T07:07:34;15.60;99.90
16140;DHT22;8175;49.326;12.690;2023-09-07T07:10:00;16.00;99.90
16140;DHT22;8175;49.326;12.690;2023-09-07T07:12:25;16.20;99.90
16140;DHT22;8175;49.326;12.690;2023-09-07T07:14:51;16.20;99.90
16140;DHT22;8175;49.326;12.690;2023-09-07T07:17:17;16.30;99.90
16140;DHT22;8175;49.326;12.690;2023-09-07T07:19:43;16.40;99.90
16140;DHT22;8175;49.326;12.690;2023-09-07T07:22:08;16.60;99.90
16140;DHT22;8175;49.326;12.690;2023-09-07T07:24:34;17.00;99.90
16140;DHT22;8175;49.326;12.690;2023-09-07T07:27:00;17.10;99.90
16140;DHT22;8175;49.326;12.690;2023-09-07T07:29:25;17.20;99.90
16140;DHT22;8175;49.326;12.690;2023-09-07T07:31:51;17.20;99.90
16140;DHT22;8175;49.326;12.690;2023-09-07T07:34:17;17.40;99.90
16140;DHT22;8175;49.326;12.690;2023-09-07T07:36:42;17.50;99.90
16140;DHT22;8175;49.326;12.690;2023-09-07T07:39:08;17.60;99.90
16140;DHT22;8175;49.326;12.690;2023-09-07T07:41:34;17.90;99.90
16140;DHT22;8175;49.326;12.690;2023-09-07T07:44:00;18.00;99.90
16140;DHT22;8175;49.326;12.690;2023-09-07T07:46:25;18.40;99.90
16140;DHT22;8175;49.326;12.690;2023-09-07T07:48:51;19.90;99.90
16140;DHT22;8175;49.326;12.690;2023-09-07T07:51:17;22.00;99.90
16140;DHT22;8175;49.326;12.690;2023-09-07T07:53:42;24.10;99.90
16140;DHT22;8175;49.326;12.690;2023-09-07T07:56:18;25.70;99.90
16140;DHT22;8175;49.326;12.690;2023-09-07T07:58:44;27.40;99.90
16140;DHT22;8175;49.326;12.690;2023-09-07T08:01:17;28.20;99.90
16140;DHT22;8175;49.326;12.690;2023-09-07T08:03:43;29.20;99.90
16140;DHT22;8175;49.326;12.690;2023-09-07T08:06:10;29.70;97.80
16140;DHT22;8175;49.326;12.690;2023-09-07T08:08:37;30.40;91.50
16140;DHT22;8175;49.326;12.690;2023-09-07T08:11:02;30.50;90.30
16140;DHT22;8175;49.326;12.690;2023-09-07T08:13:33;30.90;79.30
16140;DHT22;8175;49.326;12.690;2023-09-07T08:16:00;31.60;84.10
16140;DHT22;8175;49.326;12.690;2023-09-07T08:18:27;31.50;70.10
16140;DHT22;8175;49.326;12.690;2023-09-07T08:20:53;31.70;74.30
16140;DHT22;8175;49.326;12.690;2023-09-07T08:23:20;31.10;67.20
16140;DHT22;8175;49.326;12.690;2023-09-07T08:25:46;29.70;66.50
16140;DHT22;8175;49.326;12.690;2023-09-07T08:28:12;27.90;74.10
16140;DHT22;8175;49.326;12.690;2023-09-07T08:30:38;26.50;79.30
16140;DHT22;8175;49.326;12.690;2023-09-07T08:33:04;25.20;81.10
16140;DHT22;8175;49.326;12.690;2023-09-07T08:35:32;25.90;83.80
16140;DHT22;8175;49.326;12.690;2023-09-07T08:38:01;26.30;79.60
16140;DHT22;8175;49.326;12.690;2023-09-07T08:40:29;25.20;80.00
16140;DHT22;8175;49.326;12.690;2023-09-07T08:42:55;24.90;88.70
16140;DHT22;8175;49.326;12.690;2023-09-07T08:45:22;24.70;89.20
16140;DHT22;8175;49.326;12.690;2023-09-07T08:47:49;24.00;91.80
16140;DHT22;8175;49.326;12.690;2023-09-07T08:50:16;23.90;94.30
16140;DHT22;8175;49.326;12.690;2023-09-07T08:52:43;23.50;93.50
16140;DHT22;8175;49.326;12.690;2023-09-07T08:55:16;23.60;94.30
16140;DHT22;8175;49.326;12.690;2023-09-07T08:57:42;23.90;94.70
16140;DHT22;8175;49.326;12.690;2023-09-07T09:00:08;24.50;94.00
16140;DHT22;8175;49.326;12.690;2023-09-07T09:02:39;24.00;97.50
16140;DHT22;8175;49.326;12.690;2023-09-07T09:05:05;23.20;96.10
16140;DHT22;8175;49.326;12.690;2023-09-07T09:07:33;22.80;99.90
16140;DHT22;8175;49.326;12.690;2023-09-07T09:10:07;22.90;99.90
16140;DHT22;8175;49.326;12.690;2023-09-07T09:12:34;23.00;99.90
16140;DHT22;8175;49.326;12.690;2023-09-07T09:15:00;23.00;99.90
16140;DHT22;8175;49.326;12.690;2023-09-07T09:17:28;22.90;99.90
16140;DHT22;8175;49.326;12.690;2023-09-07T09:19:54;23.20;99.90
16140;DHT22;8175;49.326;12.690;2023-09-07T09:22:20;24.00;99.90
16140;DHT22;8175;49.326;12.690;2023-09-07T09:24:49;25.70;99.90
16140;DHT22;8175;49.326;12.690;2023-09-07T09:27:16;27.70;95.40
16140;DHT22;8175;49.326;12.690;2023-09-07T09:29:42;27.90;91.50
16140;DHT22;8175;49.326;12.690;2023-09-07T09:32:07;29.50;84.40
16140;DHT22;8175;49.326;12.690;2023-09-07T09:34:35;30.90;82.30
16140;DHT22;8175;49.326;12.690;2023-09-07T09:37:01;32.00;71.90
16140;DHT22;8175;49.326;12.690;2023-09-07T09:39:29;31.40;68.30
16140;DHT22;8175;49.326;12.690;2023-09-07T09:41:55;31.50;67.40
16140;DHT22;8175;49.326;12.690;2023-09-07T09:44:25;31.80;65.40
16140;DHT22;8175;49.326;12.690;2023-09-07T09:46:54;32.40;58.40
16140;DHT22;8175;49.326;12.690;2023-09-07T09:49:22;33.20;57.00
16140;DHT22;8175;49.326;12.690;2023-09-07T09:51:51;33.80;52.90
16140;DHT22;8175;49.326;12.690;2023-09-07T09:54:17;32.60;58.10
16140;DHT22;8175;49.326;12.690;2023-09-07T09:56:44;33.10;57.00
16140;DHT22;8175;49.326;12.690;2023-09-07T09:59:11;32.00;53.40
16140;DHT22;8175;49.326;12.690;2023-09-07T10:01:48;32.20;59.60
16140;DHT22;8175;49.326;12.690;2023-09-07T10:04:18;30.90;55.90
16140;DHT22;8175;49.326;12.690;2023-09-07T10:06:53;31.90;55.70
16140;DHT22;8175;49.326;12.690;2023-09-07T10:09:20;32.50;53.60
16140;DHT22;8175;49.326;12.690;2023-09-07T10:11:57;33.40;55.10
16140;DHT22;8175;49.326;12.690;2023-09-07T10:14:23;34.40;53.80
16140;DHT22;8175;49.326;12.690;2023-09-07T10:16:50;33.90;49.90
16140;DHT22;8175;49.326;12.690;2023-09-07T10:19:25;33.90;52.30
16140;DHT22;8175;49.326;12.690;2023-09-07T10:21:53;33.70;51.50
16140;DHT22;8175;49.326;12.690;2023-09-07T10:24:30;32.60;49.60
16140;DHT22;8175;49.326;12.690;2023-09-07T10:27:06;31.40;51.70
16140;DHT22;8175;49.326;12.690;2023-09-07T10:29:46;32.10;52.60
16140;DHT22;8175;49.326;12.690;2023-09-07T10:32:15;33.10;50.20
16140;DHT22;8175;49.326;12.690;2023-09-07T10:34:42;33.20;53.20
16140;DHT22;8175;49.326;12.690;2023-09-07T10:37:11;33.80;50.60
16140;DHT22;8175;49.326;12.690;2023-09-07T10:39:43;34.60;51.80
16140;DHT22;8175;49.326;12.690;2023-09-07T10:42:23;34.70;47.90
16140;DHT22;8175;49.326;12.690;2023-09-07T10:44:49;34.80;49.80
16140;DHT22;8175;49.326;12.690;2023-09-07T10:47:15;34.50;46.80
16140;DHT22;8175;49.326;12.690;2023-09-07T10:49:41;34.30;47.50
16140;DHT22;8175;49.326;12.690;2023-09-07T10:52:06;33.60;46.60
16140;DHT22;8175;49.326;12.690;2023-09-07T10:54:32;32.30;52.20
16140;DHT22;8175;49.326;12.690;2023-09-07T10:57:11;32.80;50.30
16140;DHT22;8175;49.326;12.690;2023-09-07T10:59:43;33.10;52.50
16140;DHT22;8175;49.326;12.690;2023-09-07T11:02:09;34.50;48.70
16140;DHT22;8175;49.326;12.690;2023-09-07T11:04:35;34.10;47.50
16140;DHT22;8175;49.326;12.690;2023-09-07T11:07:01;35.50;46.80
16140;DHT22;8175;49.326;12.690;2023-09-07T11:09:30;34.90;47.40
16140;DHT22;8175;49.326;12.690;2023-09-07T11:11:55;34.70;45.80
16140;DHT22;8175;49.326;12.690;2023-09-07T11:14:21;33.40;47.30
16140;DHT22;8175;49.326;12.690;2023-09-07T11:16:47;33.20;45.40
16140;DHT22;8175;49.326;12.690;2023-09-07T11:19:13;32.10;48.30
16140;DHT22;8175;49.326;12.690;2023-09-07T11:21:40;30.40;48.90
16140;DHT22;8175;49.326;12.690;2023-09-07T11:24:06;30.00;53.00
16140;DHT22;8175;49.326;12.690;2023-09-07T11:26:44;30.70;53.80
16140;DHT22;8175;49.326;12.690;2023-09-07T11:29:13;30.70;53.60
16140;DHT22;8175;49.326;12.690;2023-09-07T11:31:40;31.50;49.30
16140;DHT22;8175;49.326;12.690;2023-09-07T11:34:09;30.80;53.00
16140;DHT22;8175;49.326;12.690;2023-09-07T11:36:35;30.50;54.40
16140;DHT22;8175;49.326;12.690;2023-09-07T11:39:01;32.10;53.90
16140;DHT22;8175;49.326;12.690;2023-09-07T11:41:32;31.60;50.00
16140;DHT22;8175;49.326;12.690;2023-09-07T11:43:58;32.60;48.80
16140;DHT22;8175;49.326;12.690;2023-09-07T11:46:23;32.80;46.50
16140;DHT22;8175;49.326;12.690;2023-09-07T11:48:49;32.10;50.00
16140;DHT22;8175;49.326;12.690;2023-09-07T11:51:15;32.20;51.10
16140;DHT22;8175;49.326;12.690;2023-09-07T11:53:40;30.60;51.80
16140;DHT22;8175;49.326;12.690;2023-09-07T11:56:06;29.80;52.90
16140;DHT22;8175;49.326;12.690;2023-09-07T11:58:32;30.80;51.40
16140;DHT22;8175;49.326;12.690;2023-09-07T12:00:57;31.50;57.70
16140;DHT22;8175;49.326;12.690;2023-09-07T12:03:23;31.20;50.90
16140;DHT22;8175;49.326;12.690;2023-09-07T12:05:48;30.20;52.00
16140;DHT22;8175;49.326;12.690;2023-09-07T12:08:14;31.00;54.00
16140;DHT22;8175;49.326;12.690;2023-09-07T12:10:40;31.20;53.80
16140;DHT22;8175;49.326;12.690;2023-09-07T12:13:05;32.00;52.40
16140;DHT22;8175;49.326;12.690;2023-09-07T12:15:31;31.50;52.40
16140;DHT22;8175;49.326;12.690;2023-09-07T12:17:57;31.30;51.80
16140;DHT22;8175;49.326;12.690;2023-09-07T12:20:23;31.20;51.00
16140;DHT22;8175;49.326;12.690;2023-09-07T12:22:48;30.70;52.50
16140;DHT22;8175;49.326;12.690;2023-09-07T12:25:14;30.80;52.90
16140;DHT22;8175;49.326;12.690;2023-09-07T12:27:41;30.90;52.80
16140;DHT22;8175;49.326;12.690;2023-09-07T12:30:09;30.70;54.60
16140;DHT22;8175;49.326;12.690;2023-09-07T12:32:38;30.30;54.90
16140;DHT22;8175;49.326;12.690;2023-09-07T12:35:04;31.10;58.10
16140;DHT22;8175;49.326;12.690;2023-09-07T12:37:35;30.80;55.10
16140;DHT22;8175;49.326;12.690;2023-09-07T12:40:01;30.90;56.20
16140;DHT22;8175;49.326;12.690;2023-09-07T12:42:27;31.30;56.20
16140;DHT22;8175;49.326;12.690;2023-09-07T12:44:53;32.10;55.80
16140;DHT22;8175;49.326;12.690;2023-09-07T12:47:18;31.80;51.20
16140;DHT22;8175;49.326;12.690;2023-09-07T12:49:44;31.40;54.80
16140;DHT22;8175;49.326;12.690;2023-09-07T12:52:10;31.50;50.50
16140;DHT22;8175;49.326;12.690;2023-09-07T12:54:36;31.60;53.40
16140;DHT22;8175;49.326;12.690;2023-09-07T12:57:02;33.00;50.50
16140;DHT22;8175;49.326;12.690;2023-09-07T12:59:28;32.60;51.70
16140;DHT22;8175;49.326;12.690;2023-09-07T13:01:54;31.50;55.10
16140;DHT22;8175;49.326;12.690;2023-09-07T13:04:21;30.70;56.00
16140;DHT22;8175;49.326;12.690;2023-09-07T13:06:47;31.10;55.50
16140;DHT22;8175;49.326;12.690;2023-09-07T13:09:13;30.60;53.40
16140;DHT22;8175;49.326;12.690;2023-09-07T13:11:38;30.80;54.00
16140;DHT22;8175;49.326;12.690;2023-09-07T13:14:05;31.10;53.70
16140;DHT22;8175;49.326;12.690;2023-09-07T13:16:30;31.30;52.20
16140;DHT22;8175;49.326;12.690;2023-09-07T13:18:58;31.60;55.60
16140;DHT22;8175;49.326;12.690;2023-09-07T13:21:24;31.20;53.80
16140;DHT22;8175;49.326;12.690;2023-09-07T13:23:49;30.80;52.00
16140;DHT22;8175;49.326;12.690;2023-09-07T13:26:15;30.40;53.40
16140;DHT22;8175;49.326;12.690;2023-09-07T13:28:41;30.10;55.20
16140;DHT22;8175;49.326;12.690;2023-09-07T13:31:07;30.60;53.40
16140;DHT22;8175;49.326;12.690;2023-09-07T13:33:32;31.90;52.60
16140;DHT22;8175;49.326;12.690;2023-09-07T13:35:58;32.40;52.10
16140;DHT22;8175;49.326;12.690;2023-09-07T13:38:24;32.10;54.00
16140;DHT22;8175;49.326;12.690;2023-09-07T13:40:49;30.20;54.00
16140;DHT22;8175;49.326;12.690;2023-09-07T13:43:15;29.90;56.30
16140;DHT22;8175;49.326;12.690;2023-09-07T13:45:40;30.70;59.50
16140;DHT22;8175;49.326;12.690;2023-09-07T13:48:06;30.00;56.90
16140;DHT22;8175;49.326;12.690;2023-09-07T13:50:32;30.90;58.30
16140;DHT22;8175;49.326;12.690;2023-09-07T13:52:57;31.90;54.90
16140;DHT22;8175;49.326;12.690;2023-09-07T13:55:24;32.60;51.50
16140;DHT22;8175;49.326;12.690;2023-09-07T13:57:51;32.90;52.20
16140;DHT22;8175;49.326;12.690;2023-09-07T14:00:16;32.70;52.40
16140;DHT22;8175;49.326;12.690;2023-09-07T14:02:42;30.80;55.00
16140;DHT22;8175;49.326;12.690;2023-09-07T14:05:08;31.40;53.70
16140;DHT22;8175;49.326;12.690;2023-09-07T14:07:34;31.80;51.60
16140;DHT22;8175;49.326;12.690;2023-09-07T14:10:00;31.60;50.70
16140;DHT22;8175;49.326;12.690;2023-09-07T14:12:26;31.90;54.60
16140;DHT22;8175;49.326;12.690;2023-09-07T14:14:52;32.70;49.50
16140;DHT22;8175;49.326;12.690;2023-09-07T14:17:18;32.40;49.50
16140;DHT22;8175;49.326;12.690;2023-09-07T14:19:47;31.50;51.40
16140;DHT22;8175;49.326;12.690;2023-09-07T14:22:12;31.30;53.80
16140;DHT22;8175;49.326;12.690;2023-09-07T14:24:38;31.50;54.00
16140;DHT22;8175;49.326;12.690;2023-09-07T14:27:04;31.30;52.40
16140;DHT22;8175;49.326;12.690;2023-09-07T14:29:30;31.90;52.50
16140;DHT22;8175;49.326;12.690;2023-09-07T14:31:56;31.50;52.20
16140;DHT22;8175;49.326;12.690;2023-09-07T14:34:21;30.60;56.50
16140;DHT22;8175;49.326;12.690;2023-09-07T14:36:47;30.20;53.70
16140;DHT22;8175;49.326;12.690;2023-09-07T14:39:13;30.60;52.50
16140;DHT22;8175;49.326;12.690;2023-09-07T14:41:39;31.30;54.30
16140;DHT22;8175;49.326;12.690;2023-09-07T14:44:05;31.50;52.90
16140;DHT22;8175;49.326;12.690;2023-09-07T14:46:31;31.80;51.10
16140;DHT22;8175;49.326;12.690;2023-09-07T14:48:57;31.80;51.90
16140;DHT22;8175;49.326;12.690;2023-09-07T14:51:23;31.70;54.10
16140;DHT22;8175;49.326;12.690;2023-09-07T14:53:49;31.20;53.80
16140;DHT22;8175;49.326;12.690;2023-09-07T14:56:15;31.00;51.90
16140;DHT22;8175;49.326;12.690;2023-09-07T14:58:40;30.70;53.50
16140;DHT22;8175;49.326;12.690;2023-09-07T15:01:06;30.60;52.50
16140;DHT22;8175;49.326;12.690;2023-09-07T15:03:32;30.80;53.60
16140;DHT22;8175;49.326;12.690;2023-09-07T15:05:58;30.80;54.00
16140;DHT22;8175;49.326;12.690;2023-09-07T15:08:24;30.10;54.30
16140;DHT22;8175;49.326;12.690;2023-09-07T15:10:49;29.00;55.10
16140;DHT22;8175;49.326;12.690;2023-09-07T15:13:15;28.50;56.60
16140;DHT22;8175;49.326;12.690;2023-09-07T15:15:41;28.70;60.70
16140;DHT22;8175;49.326;12.690;2023-09-07T15:18:07;29.30;56.00
16140;DHT22;8175;49.326;12.690;2023-09-07T15:20:37;30.00;54.80
16140;DHT22;8175;49.326;12.690;2023-09-07T15:23:02;30.10;55.40
16140;DHT22;8175;49.326;12.690;2023-09-07T15:25:29;29.80;53.90
16140;DHT22;8175;49.326;12.690;2023-09-07T15:27:55;29.30;58.40
16140;DHT22;8175;49.326;12.690;2023-09-07T15:30:22;28.60;55.80
16140;DHT22;8175;49.326;12.690;2023-09-07T15:32:48;28.50;55.00
16140;DHT22;8175;49.326;12.690;2023-09-07T15:35:14;28.80;55.10
16140;DHT22;8175;49.326;12.690;2023-09-07T15:37:39;29.00;56.80
16140;DHT22;8175;49.326;12.690;2023-09-07T15:40:08;28.90;56.30
16140;DHT22;8175;49.326;12.690;2023-09-07T15:42:33;28.90;57.30
16140;DHT22;8175;49.326;12.690;2023-09-07T15:44:59;28.70;59.90
16140;DHT22;8175;49.326;12.690;2023-09-07T15:47:25;28.20;57.10
16140;DHT22;8175;49.326;12.690;2023-09-07T15:49:52;27.70;57.90
16140;DHT22;8175;49.326;12.690;2023-09-07T15:52:18;27.50;57.60
16140;DHT22;8175;49.326;12.690;2023-09-07T15:54:44;27.00;59.50
16140;DHT22;8175;49.326;12.690;2023-09-07T15:57:10;26.90;62.10
16140;DHT22;8175;49.326;12.690;2023-09-07T15:59:35;26.80;64.40
16140;DHT22;8175;49.326;12.690;2023-09-07T16:02:01;26.90;61.30
16140;DHT22;8175;49.326;12.690;2023-09-07T16:04:27;26.60;61.20
16140;DHT22;8175;49.326;12.690;2023-09-07T16:06:52;26.20;65.90
16140;DHT22;8175;49.326;12.690;2023-09-07T16:09:18;26.10;64.10
16140;DHT22;8175;49.326;12.690;2023-09-07T16:11:44;25.80;66.60
16140;DHT22;8175;49.326;12.690;2023-09-07T16:14:10;25.70;68.30
16140;DHT22;8175;49.326;12.690;2023-09-07T16:16:37;25.50;71.40
16140;DHT22;8175;49.326;12.690;2023-09-07T16:19:02;25.30;71.50
16140;DHT22;8175;49.326;12.690;2023-09-07T16:21:28;25.20;69.70
16140;DHT22;8175;49.326;12.690;2023-09-07T16:23:55;25.00;71.00
16140;DHT22;8175;49.326;12.690;2023-09-07T16:26:20;24.90;74.70
16140;DHT22;8175;49.326;12.690;2023-09-07T16:28:47;24.60;76.70
16140;DHT22;8175;49.326;12.690;2023-09-07T16:31:14;24.50;76.70
16140;DHT22;8175;49.326;12.690;2023-09-07T16:33:39;24.50;73.70
16140;DHT22;8175;49.326;12.690;2023-09-07T16:36:05;24.40;75.70
16140;DHT22;8175;49.326;12.690;2023-09-07T16:38:31;24.20;76.00
16140;DHT22;8175;49.326;12.690;2023-09-07T16:40:56;24.10;82.90
16140;DHT22;8175;49.326;12.690;2023-09-07T16:43:22;23.90;83.50
16140;DHT22;8175;49.326;12.690;2023-09-07T16:46:03;23.80;83.00
16140;DHT22;8175;49.326;12.690;2023-09-07T16:48:31;23.90;80.80
16140;DHT22;8175;49.326;12.690;2023-09-07T16:50:57;23.80;84.50
16140;DHT22;8175;49.326;12.690;2023-09-07T16:53:23;23.60;87.90
16140;DHT22;8175;49.326;12.690;2023-09-07T16:55:48;23.50;87.60
16140;DHT22;8175;49.326;12.690;2023-09-07T16:58:14;23.40;87.30
16140;DHT22;8175;49.326;12.690;2023-09-07T17:00:40;23.20;90.50
16140;DHT22;8175;49.326;12.690;2023-09-07T17:03:06;23.10;93.20
16140;DHT22;8175;49.326;12.690;2023-09-07T17:05:35;23.10;90.70
16140;DHT22;8175;49.326;12.690;2023-09-07T17:08:02;23.10;90.80
16140;DHT22;8175;49.326;12.690;2023-09-07T17:10:28;23.00;91.40
16140;DHT22;8175;49.326;12.690;2023-09-07T17:12:53;22.80;92.20
16140;DHT22;8175;49.326;12.690;2023-09-07T17:15:19;22.80;91.10
16140;DHT22;8175;49.326;12.690;2023-09-07T17:17:51;22.80;90.40
16140;DHT22;8175;49.326;12.690;2023-09-07T17:20:17;22.70;93.80
16140;DHT22;8175;49.326;12.690;2023-09-07T17:22:43;22.40;93.20
16140;DHT22;8175;49.326;12.690;2023-09-07T17:25:12;22.20;97.40
16140;DHT22;8175;49.326;12.690;2023-09-07T17:27:38;21.90;98.60
16140;DHT22;8175;49.326;12.690;2023-09-07T17:30:04;21.70;99.90
16140;DHT22;8175;49.326;12.690;2023-09-07T17:32:30;21.50;99.90
16140;DHT22;8175;49.326;12.690;2023-09-07T17:35:00;21.50;99.90
16140;DHT22;8175;49.326;12.690;2023-09-07T17:37:26;21.30;99.90
16140;DHT22;8175;49.326;12.690;2023-09-07T17:39:51;21.00;99.90
16140;DHT22;8175;49.326;12.690;2023-09-07T17:42:18;20.70;99.90
16140;DHT22;8175;49.326;12.690;2023-09-07T17:44:44;20.60;99.90
16140;DHT22;8175;49.326;12.690;2023-09-07T17:47:10;20.30;99.90
16140;DHT22;8175;49.326;12.690;2023-09-07T17:49:35;20.10;99.90
16140;DHT22;8175;49.326;12.690;2023-09-07T17:52:01;20.00;99.90
16140;DHT22;8175;49.326;12.690;2023-09-07T17:54:26;20.00;99.90
16140;DHT22;8175;49.326;12.690;2023-09-07T17:56:52;19.90;99.90
16140;DHT22;8175;49.326;12.690;2023-09-07T17:59:18;19.60;99.90
16140;DHT22;8175;49.326;12.690;2023-09-07T18:01:43;19.30;99.90
16140;DHT22;8175;49.326;12.690;2023-09-07T18:04:09;19.10;99.90
16140;DHT22;8175;49.326;12.690;2023-09-07T18:06:34;19.00;99.90
16140;DHT22;8175;49.326;12.690;2023-09-07T18:09:00;18.80;99.90
16140;DHT22;8175;49.326;12.690;2023-09-07T18:11:26;18.70;99.90
16140;DHT22;8175;49.326;12.690;2023-09-07T18:13:52;18.60;99.90
16140;DHT22;8175;49.326;12.690;2023-09-07T18:16:17;18.60;99.90
16140;DHT22;8175;49.326;12.690;2023-09-07T18:18:43;18.40;99.90
16140;DHT22;8175;49.326;12.690;2023-09-07T18:21:09;18.40;99.90
16140;DHT22;8175;49.326;12.690;2023-09-07T18:23:35;18.40;99.90
16140;DHT22;8175;49.326;12.690;2023-09-07T18:26:01;18.30;99.90
16140;DHT22;8175;49.326;12.690;2023-09-07T18:28:26;18.20;99.90
16140;DHT22;8175;49.326;12.690;2023-09-07T18:30:52;18.10;99.90
16140;DHT22;8175;49.326;12.690;2023-09-07T18:33:18;18.90;99.90
16140;DHT22;8175;49.326;12.690;2023-09-07T18:35:44;18.70;99.90
16140;DHT22;8175;49.326;12.690;2023-09-07T18:38:09;18.40;99.90
16140;DHT22;8175;49.326;12.690;2023-09-07T18:40:35;18.10;99.90
16140;DHT22;8175;49.326;12.690;2023-09-07T18:43:01;18.10;99.90
16140;DHT22;8175;49.326;12.690;2023-09-07T18:45:26;18.20;99.90
16140;DHT22;8175;49.326;12.690;2023-09-07T18:47:52;18.30;99.90
16140;DHT22;8175;49.326;12.690;2023-09-07T18:50:18;18.30;99.90
16140;DHT22;8175;49.326;12.690;2023-09-07T18:52:48;18.10;99.90
16140;DHT22;8175;49.326;12.690;2023-09-07T18:55:14;18.10;99.90
16140;DHT22;8175;49.326;12.690;2023-09-07T18:57:40;17.90;99.90
16140;DHT22;8175;49.326;12.690;2023-09-07T19:00:06;18.50;99.90
16140;DHT22;8175;49.326;12.690;2023-09-07T19:02:32;18.50;99.90
16140;DHT22;8175;49.326;12.690;2023-09-07T19:04:57;18.80;99.90
16140;DHT22;8175;49.326;12.690;2023-09-07T19:07:23;19.00;99.90
16140;DHT22;8175;49.326;12.690;2023-09-07T19:09:50;19.00;99.90
16140;DHT22;8175;49.326;12.690;2023-09-07T19:12:17;18.80;99.90
16140;DHT22;8175;49.326;12.690;2023-09-07T19:14:43;18.90;99.90
16140;DHT22;8175;49.326;12.690;2023-09-07T19:17:09;19.10;99.90
16140;DHT22;8175;49.326;12.690;2023-09-07T19:19:35;18.80;99.90
16140;DHT22;8175;49.326;12.690;2023-09-07T19:22:00;18.50;99.90
16140;DHT22;8175;49.326;12.690;2023-09-07T19:24:27;18.20;99.90
16140;DHT22;8175;49.326;12.690;2023-09-07T19:26:52;18.30;99.90
16140;DHT22;8175;49.326;12.690;2023-09-07T19:29:20;18.30;99.90
16140;DHT22;8175;49.326;12.690;2023-09-07T19:31:46;18.10;99.90
16140;DHT22;8175;49.326;12.690;2023-09-07T19:34:12;18.30;99.90
16140;DHT22;8175;49.326;12.690;2023-09-07T19:36:38;18.30;99.90
16140;DHT22;8175;49.326;12.690;2023-09-07T19:39:05;18.40;99.90
16140;DHT22;8175;49.326;12.690;2023-09-07T19:41:31;18.20;99.90
16140;DHT22;8175;49.326;12.690;2023-09-07T19:44:00;18.10;99.90
16140;DHT22;8175;49.326;12.690;2023-09-07T19:46:26;18.20;99.90
16140;DHT22;8175;49.326;12.690;2023-09-07T19:48:52;18.20;99.90
16140;DHT22;8175;49.326;12.690;2023-09-07T19:51:19;18.80;99.90
16140;DHT22;8175;49.326;12.690;2023-09-07T19:53:45;19.10;99.90
16140;DHT22;8175;49.326;12.690;2023-09-07T19:56:16;19.00;99.90
16140;DHT22;8175;49.326;12.690;2023-09-07T19:58:42;18.80;99.90
16140;DHT22;8175;49.326;12.690;2023-09-07T20:01:12;18.80;99.90
16140;DHT22;8175;49.326;12.690;2023-09-07T20:03:41;18.60;99.90
16140;DHT22;8175;49.326;12.690;2023-09-07T20:06:07;18.60;99.90
16140;DHT22;8175;49.326;12.690;2023-09-07T20:08:33;18.50;99.90
16140;DHT22;8175;49.326;12.690;2023-09-07T20:10:59;18.60;99.90
16140;DHT22;8175;49.326;12.690;2023-09-07T20:13:25;18.70;99.90
16140;DHT22;8175;49.326;12.690;2023-09-07T20:15:51;18.70;99.90
16140;DHT22;8175;49.326;12.690;2023-09-07T20:18:16;18.70;99.90
16140;DHT22;8175;49.326;12.690;2023-09-07T20:20:42;18.70;99.90
16140;DHT22;8175;49.326;12.690;2023-09-07T20:23:08;18.80;99.90
16140;DHT22;8175;49.326;12.690;2023-09-07T20:25:33;19.00;99.90
16140;DHT22;8175;49.326;12.690;2023-09-07T20:27:59;19.10;99.90
16140;DHT22;8175;49.326;12.690;2023-09-07T20:30:25;19.20;99.90
16140;DHT22;8175;49.326;12.690;2023-09-07T20:32:51;19.20;99.90
16140;DHT22;8175;49.326;12.690;2023-09-07T20:35:16;19.40;99.90
16140;DHT22;8175;49.326;12.690;2023-09-07T20:37:43;19.40;99.90
16140;DHT22;8175;49.326;12.690;2023-09-07T20:40:09;19.40;99.90
16140;DHT22;8175;49.326;12.690;2023-09-07T20:42:38;19.40;99.90
16140;DHT22;8175;49.326;12.690;2023-09-07T20:45:04;19.40;99.90
16140;DHT22;8175;49.326;12.690;2023-09-07T20:47:30;19.40;99.90
16140;DHT22;8175;49.326;12.690;2023-09-07T20:49:55;19.50;99.90
16140;DHT22;8175;49.326;12.690;2023-09-07T20:52:22;19.50;99.90
16140;DHT22;8175;49.326;12.690;2023-09-07T20:54:48;19.30;99.90
16140;DHT22;8175;49.326;12.690;2023-09-07T20:57:14;19.20;99.90
